createdAt,value
2022-10-26T00:01:24.229Z,9.50
2022-10-26T00:03:52.739Z,8.23
2022-10-26T00:06:23.075Z,8.02
2022-10-26T00:08:53.670Z,7.15
2022-10-26T00:11:23.238Z,8.77
2022-10-26T00:13:51.744Z,8.82
2022-10-26T00:16:27.604Z,9.45
2022-10-26T00:18:56.191Z,7.40
2022-10-26T00:21:24.293Z,9.00
2022-10-26T00:23:52.416Z,10.27
2022-10-26T00:26:20.426Z,9.85
2022-10-26T00:28:49.484Z,8.90
2022-10-26T00:31:21.246Z,9.68
2022-10-26T00:33:52.836Z,8.88
2022-10-26T00:36:21.500Z,12.05
2022-10-26T00:38:52.595Z,8.10
2022-10-26T00:41:30.527Z,7.85
2022-10-26T00:43:58.803Z,10.07
2022-10-26T00:46:39.896Z,7.88
2022-10-26T00:49:17.033Z,10.43
2022-10-26T00:51:50.525Z,7.68
2022-10-26T00:54:20.067Z,10.35
2022-10-26T00:56:50.421Z,9.50
2022-10-26T00:59:20.495Z,8.68
2022-10-26T01:01:50.028Z,8.35
2022-10-26T01:04:19.052Z,8.35
2022-10-26T01:06:48.034Z,8.23
2022-10-26T01:09:21.212Z,9.38
2022-10-26T01:11:50.289Z,8.95
2022-10-26T01:14:20.801Z,10.70
2022-10-26T01:16:54.968Z,8.43
2022-10-26T01:19:43.765Z,6.80
2022-10-26T01:22:21.339Z,7.50
2022-10-26T01:25:27.278Z,9.82
2022-10-26T01:27:55.375Z,10.77
2022-10-26T01:30:32.087Z,10.63
2022-10-26T01:33:36.693Z,14.43
2022-10-26T01:36:28.411Z,8.50
2022-10-26T01:39:28.349Z,16.58
2022-10-26T01:42:02.782Z,11.82
2022-10-26T01:44:44.005Z,19.35
2022-10-26T01:47:15.248Z,17.05
2022-10-26T01:49:51.923Z,13.18
2022-10-26T01:52:21.763Z,9.75
2022-10-26T01:54:49.763Z,9.77
2022-10-26T01:57:21.054Z,8.07
2022-10-26T02:00:10.506Z,7.97
2022-10-26T02:02:44.949Z,6.10
2022-10-26T02:05:33.493Z,8.50
2022-10-26T02:08:19.889Z,10.13
2022-10-26T02:11:03.699Z,8.38
2022-10-26T02:13:41.475Z,6.93
2022-10-26T02:16:34.421Z,8.30
2022-10-26T02:19:08.851Z,7.85
2022-10-26T02:21:41.944Z,7.78
2022-10-26T02:24:14.672Z,7.53
2022-10-26T02:26:46.613Z,7.80
2022-10-26T02:29:19.223Z,10.40
2022-10-26T02:31:51.488Z,7.32
2022-10-26T02:34:25.266Z,7.68
2022-10-26T02:36:58.309Z,7.07
2022-10-26T02:39:29.993Z,8.50
2022-10-26T02:41:59.876Z,9.35
2022-10-26T02:44:31.319Z,7.05
2022-10-26T02:47:00.367Z,6.68
2022-10-26T02:49:29.130Z,8.25
2022-10-26T02:52:07.664Z,6.10
2022-10-26T02:54:59.859Z,6.45
2022-10-26T02:57:40.513Z,7.70
2022-10-26T03:02:55.074Z,6.40
2022-10-26T03:05:29.167Z,6.57
2022-10-26T03:07:57.687Z,6.40
2022-10-26T03:10:26.949Z,6.97
2022-10-26T03:12:55.161Z,7.85
2022-10-26T03:15:24.838Z,7.00
2022-10-26T03:17:52.897Z,7.15
2022-10-26T03:20:20.889Z,6.25
2022-10-26T03:22:49.280Z,6.00
2022-10-26T03:25:18.169Z,5.50
2022-10-26T03:27:46.433Z,5.60
2022-10-26T03:30:14.603Z,7.13
2022-10-26T03:32:43.486Z,5.57
2022-10-26T03:35:11.422Z,6.60
2022-10-26T03:37:39.338Z,7.65
2022-10-26T03:40:09.640Z,5.25
2022-10-26T03:42:38.360Z,7.05
2022-10-26T03:45:07.824Z,6.57
2022-10-26T03:47:37.508Z,5.05
2022-10-26T03:52:34.102Z,6.07
2022-10-26T03:55:03.278Z,6.45
2022-10-26T03:57:31.209Z,5.80
2022-10-26T03:59:59.155Z,4.40
2022-10-26T04:02:28.075Z,5.60
2022-10-26T04:04:56.054Z,5.88
2022-10-26T04:07:24.051Z,5.22
2022-10-26T04:09:52.249Z,7.43
2022-10-26T04:12:20.244Z,6.03
2022-10-26T04:14:48.300Z,6.93
2022-10-26T04:17:16.643Z,8.82
2022-10-26T04:19:44.625Z,6.03
2022-10-26T04:22:12.623Z,8.40
2022-10-26T04:24:40.701Z,7.13
2022-10-26T04:27:08.691Z,6.13
2022-10-26T04:29:36.622Z,4.93
2022-10-26T04:32:04.929Z,5.22
2022-10-26T04:34:32.804Z,10.75
2022-10-26T04:37:00.802Z,5.55
2022-10-26T04:39:30.773Z,5.72
2022-10-26T04:41:58.752Z,5.55
2022-10-26T04:44:26.681Z,6.05
2022-10-26T04:46:55.691Z,5.78
2022-10-26T04:49:23.658Z,6.38
2022-10-26T04:51:51.674Z,7.22
2022-10-26T04:54:19.868Z,5.70
2022-10-26T04:56:47.876Z,6.50
2022-10-26T04:59:16.101Z,5.38
2022-10-26T05:01:44.384Z,5.82
2022-10-26T05:04:12.615Z,5.97
2022-10-26T05:06:40.651Z,5.63
2022-10-26T05:09:08.866Z,5.43
2022-10-26T05:11:36.815Z,6.97
2022-10-26T05:14:04.973Z,6.55
2022-10-26T05:16:35.402Z,7.15
2022-10-26T05:19:05.038Z,5.53
2022-10-26T05:21:33.032Z,4.40
2022-10-26T05:24:02.627Z,4.65
2022-10-26T05:26:30.604Z,4.80
2022-10-26T05:28:58.554Z,6.82
2022-10-26T05:31:26.694Z,4.82
2022-10-26T05:33:54.718Z,5.22
2022-10-26T05:36:22.675Z,4.22
2022-10-26T05:38:51.555Z,5.60
2022-10-26T05:41:19.561Z,5.07
2022-10-26T05:43:49.328Z,4.57
2022-10-26T05:48:46.202Z,6.40
2022-10-26T05:51:14.841Z,4.60
2022-10-26T05:53:42.914Z,5.38
2022-10-26T05:56:36.722Z,4.85
2022-10-26T05:59:12.992Z,4.65
2022-10-26T06:01:49.928Z,3.75
2022-10-26T06:04:39.586Z,5.05
2022-10-26T06:07:16.790Z,6.95
2022-10-26T06:09:47.501Z,6.53
2022-10-26T06:12:19.270Z,5.40
2022-10-26T06:14:48.422Z,6.05
2022-10-26T06:17:34.810Z,4.70
2022-10-26T06:20:26.665Z,5.70
2022-10-26T06:23:13.350Z,5.70
2022-10-26T06:26:02.226Z,7.82
2022-10-26T06:29:10.819Z,6.22
2022-10-26T06:31:38.873Z,5.53
2022-10-26T06:34:06.960Z,5.35
2022-10-26T06:36:35.955Z,6.45
2022-10-26T06:39:07.744Z,5.32
2022-10-26T06:41:37.791Z,7.63
2022-10-26T06:44:08.434Z,4.75
2022-10-26T06:46:39.261Z,4.38
2022-10-26T06:49:12.971Z,5.55
2022-10-26T06:52:04.304Z,4.45
2022-10-26T06:54:56.215Z,4.50
2022-10-26T06:57:28.692Z,5.72
2022-10-26T07:00:03.437Z,5.03
2022-10-26T07:02:33.696Z,8.18
2022-10-26T07:05:03.610Z,6.22
2022-10-26T07:10:00.095Z,6.80
2022-10-26T07:12:32.234Z,3.70
2022-10-26T07:15:01.621Z,5.90
2022-10-26T07:17:32.000Z,6.22
2022-10-26T07:20:01.684Z,4.50
2022-10-26T07:22:30.964Z,3.90
2022-10-26T07:25:02.047Z,7.05
2022-10-26T07:27:32.475Z,4.90
2022-10-26T07:30:00.391Z,7.35
2022-10-26T07:32:28.560Z,4.90
2022-10-26T07:34:57.718Z,5.63
2022-10-26T07:37:25.701Z,5.95
2022-10-26T07:39:53.635Z,6.05
2022-10-26T07:42:22.493Z,5.10
2022-10-26T07:44:50.509Z,6.37
2022-10-26T07:47:18.531Z,4.95
2022-10-26T07:49:47.494Z,6.68
2022-10-26T07:52:15.493Z,4.70
2022-10-26T07:54:43.500Z,4.85
2022-10-26T07:57:13.097Z,5.18
2022-10-26T07:59:41.089Z,4.25
2022-10-26T08:02:10.818Z,20.02
2022-10-26T08:04:39.883Z,7.05
2022-10-26T08:07:07.807Z,5.50
2022-10-26T08:09:35.885Z,3.80
2022-10-26T08:12:05.512Z,5.60
2022-10-26T08:14:33.494Z,5.47
2022-10-26T08:17:01.573Z,4.78
2022-10-26T08:19:31.696Z,3.38
2022-10-26T08:21:59.624Z,5.80
2022-10-26T08:24:27.730Z,5.40
2022-10-26T08:26:59.309Z,5.38
2022-10-26T08:29:27.224Z,7.10
2022-10-26T08:31:55.281Z,4.78
2022-10-26T08:34:23.500Z,4.38
2022-10-26T08:36:51.419Z,5.82
2022-10-26T08:39:19.404Z,5.28
2022-10-26T08:41:54.476Z,5.97
2022-10-26T08:44:38.324Z,6.20
2022-10-26T08:50:04.248Z,6.50
2022-10-26T08:52:42.676Z,4.90
2022-10-26T08:55:18.898Z,3.72
2022-10-26T08:57:51.276Z,3.58
2022-10-26T09:00:22.621Z,5.40
2022-10-26T09:02:52.118Z,4.68
2022-10-26T09:08:12.187Z,4.10
2022-10-26T09:11:10.021Z,6.10
2022-10-26T09:13:58.884Z,4.43
2022-10-26T09:16:40.020Z,5.38
2022-10-26T09:19:54.755Z,5.18
2022-10-26T09:22:33.706Z,3.42
2022-10-26T09:25:20.216Z,3.35
2022-10-26T09:27:57.662Z,3.95
2022-10-26T09:30:25.750Z,7.15
2022-10-26T09:33:16.212Z,3.72
2022-10-26T09:35:53.272Z,4.45
2022-10-26T09:38:44.189Z,3.67
2022-10-26T09:41:21.168Z,5.43
2022-10-26T09:44:30.452Z,5.82
2022-10-26T09:47:07.445Z,5.53
2022-10-26T09:50:08.441Z,3.95
2022-10-26T09:52:36.446Z,6.35
2022-10-26T09:55:04.568Z,6.60
2022-10-26T09:57:33.094Z,6.18
2022-10-26T10:00:01.257Z,5.55
2022-10-26T10:02:39.535Z,5.07
2022-10-26T10:05:49.829Z,5.72
2022-10-26T10:08:37.697Z,5.03
2022-10-26T10:11:12.269Z,4.35
2022-10-26T10:13:43.304Z,6.30
2022-10-26T10:16:25.520Z,5.70
2022-10-26T10:18:57.512Z,4.75
2022-10-26T10:21:46.571Z,5.47
2022-10-26T10:24:37.604Z,4.82
2022-10-26T10:27:17.321Z,7.30
2022-10-26T10:32:23.981Z,4.53
2022-10-26T10:34:54.957Z,6.85
2022-10-26T10:37:28.485Z,6.93
2022-10-26T10:40:20.949Z,5.40
2022-10-26T10:42:51.203Z,5.35
2022-10-26T10:45:28.754Z,5.32
2022-10-26T10:48:02.446Z,6.05
2022-10-26T10:50:32.190Z,6.80
2022-10-26T10:56:15.347Z,5.35
2022-10-26T10:59:02.744Z,4.63
2022-10-26T11:01:41.450Z,6.53
2022-10-26T11:04:34.115Z,6.68
2022-10-26T11:07:05.192Z,4.93
2022-10-26T11:09:37.660Z,5.50
2022-10-26T11:12:30.007Z,6.55
2022-10-26T11:15:06.947Z,5.80
2022-10-26T11:17:47.694Z,6.93
2022-10-26T11:20:24.335Z,6.57
2022-10-26T11:23:10.754Z,4.72
2022-10-26T11:25:51.407Z,5.53
2022-10-26T11:28:38.268Z,6.07
2022-10-26T11:31:15.239Z,6.35
2022-10-26T11:33:49.362Z,4.82
2022-10-26T11:36:23.580Z,5.82
2022-10-26T11:39:06.333Z,5.70
2022-10-26T11:41:43.857Z,7.53
2022-10-26T11:44:19.049Z,14.77
2022-10-26T11:47:04.814Z,11.20
2022-10-26T11:50:17.114Z,10.48
2022-10-26T11:52:49.461Z,8.60
2022-10-26T11:55:19.703Z,8.98
2022-10-26T11:57:48.361Z,7.10
2022-10-26T12:00:22.244Z,7.57
2022-10-26T12:03:09.546Z,8.07
2022-10-26T12:05:49.053Z,7.18
2022-10-26T12:08:28.721Z,7.95
2022-10-26T12:13:58.245Z,8.18
2022-10-26T12:16:48.215Z,6.28
2022-10-26T12:19:23.381Z,9.07
2022-10-26T12:21:52.596Z,8.02
2022-10-26T12:24:24.568Z,15.52
2022-10-26T12:26:54.311Z,27.05
2022-10-26T12:29:32.144Z,10.93
2022-10-26T12:32:01.434Z,9.82
2022-10-26T12:34:32.170Z,9.30
2022-10-26T12:37:00.159Z,9.10
2022-10-26T12:39:37.515Z,10.60
2022-10-26T12:42:11.416Z,20.17
2022-10-26T12:44:41.916Z,29.55
2022-10-26T12:47:11.753Z,40.85
2022-10-26T12:50:08.940Z,30.90
2022-10-26T12:52:43.543Z,27.65
2022-10-26T12:55:30.140Z,22.25
2022-10-26T12:58:20.229Z,19.23
2022-10-26T13:01:08.331Z,19.75
2022-10-26T13:03:59.471Z,48.95
2022-10-26T13:06:46.027Z,42.70
2022-10-26T13:09:30.329Z,36.15
2022-10-26T13:12:06.872Z,25.17
2022-10-26T13:14:43.677Z,25.58
2022-10-26T13:17:28.953Z,22.35
2022-10-26T13:20:01.259Z,20.65
2022-10-26T13:25:33.492Z,19.15
2022-10-26T13:28:27.449Z,16.50
2022-10-26T13:30:57.681Z,18.55
2022-10-26T13:33:40.708Z,18.52
2022-10-26T13:36:41.559Z,15.30
2022-10-26T13:39:21.315Z,16.23
2022-10-26T13:41:53.312Z,18.00
2022-10-26T13:44:26.874Z,16.02
2022-10-26T13:47:11.088Z,17.40
2022-10-26T13:49:46.310Z,16.20
2022-10-26T13:52:31.605Z,17.00
2022-10-26T13:55:09.044Z,19.10
2022-10-26T13:57:42.317Z,21.65
2022-10-26T14:00:22.952Z,21.08
2022-10-26T14:02:52.257Z,24.33
2022-10-26T14:05:20.809Z,22.73
2022-10-26T14:07:55.735Z,26.48
2022-10-26T14:10:31.732Z,26.38
2022-10-26T14:13:02.019Z,26.20
2022-10-26T14:15:33.080Z,19.90
2022-10-26T14:18:03.426Z,20.50
2022-10-26T14:20:33.037Z,22.30
2022-10-26T14:25:41.957Z,20.70
2022-10-26T14:28:30.165Z,23.98
2022-10-26T14:31:28.118Z,23.25
2022-10-26T14:33:57.742Z,19.83
2022-10-26T14:36:55.147Z,20.25
2022-10-26T14:39:44.298Z,23.45
2022-10-26T14:42:23.072Z,20.10
2022-10-26T14:44:51.098Z,23.25
2022-10-26T14:47:25.827Z,20.40
2022-10-26T14:49:54.431Z,22.48
2022-10-26T14:52:31.113Z,23.80
2022-10-26T14:55:04.283Z,23.45
2022-10-26T14:57:35.638Z,19.50
2022-10-26T15:00:16.435Z,24.13
2022-10-26T15:02:49.616Z,24.13
2022-10-26T15:05:33.219Z,22.75
2022-10-26T15:08:03.909Z,20.35
2022-10-26T15:10:38.050Z,21.42
2022-10-26T15:13:32.038Z,23.30
2022-10-26T15:16:17.759Z,19.67
2022-10-26T15:18:48.341Z,24.27
2022-10-26T15:21:27.432Z,23.98
2022-10-26T15:23:56.989Z,20.85
2022-10-26T15:26:26.266Z,21.45
2022-10-26T15:28:56.552Z,20.98
2022-10-26T15:31:33.994Z,24.30
2022-10-26T15:34:01.907Z,22.60
2022-10-26T15:36:32.167Z,18.73
2022-10-26T15:39:00.569Z,23.38
2022-10-26T15:41:49.355Z,19.48
2022-10-26T15:44:23.005Z,23.08
2022-10-26T15:46:51.283Z,22.60
2022-10-26T15:49:22.514Z,24.25
2022-10-26T15:51:50.667Z,25.27
2022-10-26T15:54:18.774Z,21.20
2022-10-26T15:56:47.923Z,21.77
2022-10-26T15:59:18.312Z,21.58
2022-10-26T16:01:46.758Z,23.13
2022-10-26T16:04:15.681Z,25.15
2022-10-26T16:06:43.830Z,26.03
2022-10-26T16:09:16.663Z,21.40
2022-10-26T16:11:47.680Z,26.30
2022-10-26T16:14:15.622Z,22.52
2022-10-26T16:16:44.748Z,22.73
2022-10-26T16:22:02.220Z,26.45
2022-10-26T16:24:32.046Z,19.98
2022-10-26T16:27:00.052Z,25.13
2022-10-26T16:29:28.065Z,25.55
2022-10-26T16:31:56.142Z,24.48
2022-10-26T16:34:24.065Z,24.42
2022-10-26T16:36:52.018Z,27.88
2022-10-26T16:39:20.217Z,23.88
2022-10-26T16:41:51.232Z,21.65
2022-10-26T16:44:19.251Z,22.25
2022-10-26T16:46:47.377Z,23.15
2022-10-26T16:49:15.362Z,23.75
2022-10-26T16:51:43.382Z,21.25
2022-10-26T16:54:11.494Z,21.13
2022-10-26T16:56:39.375Z,22.25
2022-10-26T16:59:07.286Z,25.38
2022-10-26T17:01:36.405Z,26.38
2022-10-26T17:04:04.559Z,23.17
2022-10-26T17:06:32.653Z,22.67
2022-10-26T17:09:00.788Z,25.98
2022-10-26T17:11:28.764Z,22.08
2022-10-26T17:13:57.258Z,28.00
2022-10-26T17:16:26.651Z,22.55
2022-10-26T17:18:56.422Z,23.08
2022-10-26T17:21:46.160Z,20.45
2022-10-26T17:24:14.311Z,22.38
2022-10-26T17:26:43.027Z,25.27
2022-10-26T17:29:15.413Z,23.10
2022-10-26T17:31:43.459Z,28.77
2022-10-26T17:34:11.438Z,19.70
2022-10-26T17:36:39.771Z,25.90
2022-10-26T17:39:07.729Z,23.75
2022-10-26T17:41:35.731Z,24.85
2022-10-26T17:44:04.628Z,22.27
2022-10-26T17:46:32.616Z,22.65
2022-10-26T17:49:01.881Z,21.73
2022-10-26T17:51:31.914Z,24.05
2022-10-26T17:54:00.578Z,26.88
2022-10-26T17:56:32.166Z,27.50
2022-10-26T17:59:08.468Z,25.67
2022-10-26T18:01:36.451Z,25.08
2022-10-26T18:04:04.608Z,26.63
2022-10-26T18:06:32.843Z,36.03
2022-10-26T18:09:00.909Z,47.50
2022-10-26T18:11:28.972Z,31.83
2022-10-26T18:13:58.395Z,26.77
2022-10-26T18:16:28.514Z,20.60
2022-10-26T18:19:02.506Z,30.92
2022-10-26T18:21:33.189Z,29.80
2022-10-26T18:24:01.147Z,31.83
2022-10-26T18:26:31.272Z,34.53
2022-10-26T18:29:01.506Z,30.02
2022-10-26T18:31:31.719Z,24.10
2022-10-26T18:34:02.429Z,27.13
2022-10-26T18:36:32.834Z,25.70
2022-10-26T18:39:01.200Z,27.48
2022-10-26T18:41:30.101Z,24.00
2022-10-26T18:44:02.728Z,27.55
2022-10-26T18:46:34.811Z,23.40
2022-10-26T18:49:02.813Z,26.42
2022-10-26T18:51:34.634Z,25.83
2022-10-26T18:54:03.088Z,25.55
2022-10-26T18:56:31.493Z,26.88
2022-10-26T18:59:02.302Z,22.05
2022-10-26T19:01:33.352Z,25.98
2022-10-26T19:04:08.882Z,24.25
2022-10-26T19:06:40.231Z,23.85
2022-10-26T19:09:10.944Z,25.23
2022-10-26T19:11:40.732Z,29.65
2022-10-26T19:14:09.550Z,27.13
2022-10-26T19:16:45.726Z,26.33
2022-10-26T19:19:15.585Z,24.35
2022-10-26T19:21:44.241Z,24.17
2022-10-26T19:24:16.587Z,23.93
2022-10-26T19:26:45.051Z,22.02
2022-10-26T19:29:16.486Z,20.80
2022-10-26T19:31:46.836Z,25.60
2022-10-26T19:34:16.538Z,25.42
2022-10-26T19:39:17.694Z,25.80
2022-10-26T19:41:47.146Z,21.80
2022-10-26T19:44:16.172Z,25.85
2022-10-26T19:46:45.538Z,26.70
2022-10-26T19:49:13.652Z,22.52
2022-10-26T19:51:42.232Z,24.48
2022-10-26T19:54:10.418Z,20.17
2022-10-26T19:56:39.023Z,24.75
2022-10-26T19:59:09.054Z,23.67
2022-10-26T20:01:37.627Z,17.20
2022-10-26T20:04:06.828Z,23.67
2022-10-26T20:06:35.719Z,23.30
2022-10-26T20:09:05.839Z,21.15
2022-10-26T20:11:35.702Z,28.10
2022-10-26T20:14:05.968Z,24.98
2022-10-26T20:16:34.181Z,25.67
2022-10-26T20:19:02.325Z,22.65
2022-10-26T20:21:30.260Z,27.83
2022-10-26T20:24:03.776Z,23.15
2022-10-26T20:26:33.838Z,24.88
2022-10-26T20:29:03.699Z,23.13
2022-10-26T20:31:31.865Z,20.30
2022-10-26T20:33:59.812Z,26.35
2022-10-26T20:36:27.824Z,22.48
2022-10-26T20:38:56.283Z,26.13
2022-10-26T20:41:24.533Z,24.05
2022-10-26T20:43:55.679Z,21.02
2022-10-26T20:46:28.180Z,25.30
2022-10-26T20:48:56.558Z,23.15
2022-10-26T20:51:52.004Z,27.80
2022-10-26T20:54:40.518Z,24.52
2022-10-26T20:57:16.607Z,27.88
2022-10-26T20:59:49.757Z,22.90
2022-10-26T21:02:17.713Z,27.80
2022-10-26T21:04:45.800Z,27.90
2022-10-26T21:07:14.200Z,27.00
2022-10-26T21:09:42.276Z,22.77
2022-10-26T21:12:11.676Z,29.30
2022-10-26T21:14:41.374Z,32.70
2022-10-26T21:17:09.998Z,34.65
2022-10-26T21:19:42.111Z,26.70
2022-10-26T21:22:10.158Z,28.90
2022-10-26T21:24:38.159Z,24.08
2022-10-26T21:27:06.342Z,25.48
2022-10-26T21:29:34.228Z,30.40
2022-10-26T21:32:02.198Z,27.02
2022-10-26T21:34:31.234Z,27.55
2022-10-26T21:36:59.185Z,24.63
2022-10-26T21:39:27.109Z,22.90
2022-10-26T21:41:55.422Z,23.80
2022-10-26T21:44:39.871Z,28.80
2022-10-26T21:47:10.466Z,21.50
2022-10-26T21:52:07.552Z,25.70
2022-10-26T21:54:35.601Z,24.83
2022-10-26T21:57:03.516Z,26.45
2022-10-26T21:59:31.468Z,27.73
2022-10-26T22:01:59.576Z,22.52
2022-10-26T22:04:28.728Z,21.05
2022-10-26T22:06:56.695Z,22.92
2022-10-26T22:09:25.997Z,25.40
2022-10-26T22:11:53.939Z,25.63
2022-10-26T22:14:22.675Z,23.77
2022-10-26T22:16:51.468Z,22.70
2022-10-26T22:19:19.474Z,24.02
2022-10-26T22:21:47.411Z,23.20
2022-10-26T22:24:17.672Z,21.92
2022-10-26T22:26:45.668Z,22.08
2022-10-26T22:29:13.666Z,24.52
2022-10-26T22:31:41.944Z,25.80
2022-10-26T22:34:16.297Z,22.95
2022-10-26T22:36:45.174Z,18.75
2022-10-26T22:39:14.645Z,22.13
2022-10-26T22:41:42.757Z,19.00
2022-10-26T22:44:10.717Z,28.63
2022-10-26T22:46:38.787Z,23.63
2022-10-26T22:49:06.725Z,22.50
2022-10-26T22:51:35.936Z,20.45
2022-10-26T22:55:05.758Z,20.90
2022-10-26T22:57:33.725Z,20.33
2022-10-26T23:00:01.650Z,19.25
2022-10-26T23:02:33.198Z,25.17
2022-10-26T23:05:01.213Z,25.63
2022-10-26T23:09:58.731Z,21.75
2022-10-26T23:12:26.687Z,21.27
2022-10-26T23:14:54.719Z,22.65
2022-10-26T23:17:23.619Z,21.33
2022-10-26T23:19:51.552Z,21.35
2022-10-26T23:22:19.512Z,19.60
2022-10-26T23:24:49.144Z,19.52
2022-10-26T23:32:17.756Z,22.58
2022-10-26T23:34:45.691Z,21.25
2022-10-26T23:37:13.837Z,19.25
2022-10-26T23:39:41.962Z,18.13
2022-10-26T23:42:09.883Z,20.73
2022-10-26T23:44:37.815Z,20.88
2022-10-26T23:47:08.640Z,15.18
2022-10-26T23:49:36.623Z,17.80
2022-10-26T23:52:04.611Z,20.08
2022-10-26T23:54:32.670Z,20.02
2022-10-26T23:57:00.656Z,20.88
2022-10-26T23:59:28.593Z,19.15
